sensor_id;sensor_type;location;lat;lon;timestamp;P1;durP1;ratioP1;P2;durP2;ratioP2
1136;SDS011;557;48.466;7.950;2023-11-18T00:00:54;11.60;;;8.33;;
1136;SDS011;557;48.466;7.950;2023-11-18T00:03:20;9.43;;;7.70;;
1136;SDS011;557;48.466;7.950;2023-11-18T00:05:47;10.27;;;7.97;;
1136;SDS011;557;48.466;7.950;2023-11-18T00:08:14;9.60;;;7.47;;
1136;SDS011;557;48.466;7.950;2023-11-18T00:10:41;12.67;;;8.20;;
1136;SDS011;557;48.466;7.950;2023-11-18T00:13:09;10.00;;;8.30;;
1136;SDS011;557;48.466;7.950;2023-11-18T00:15:36;11.87;;;8.93;;
1136;SDS011;557;48.466;7.950;2023-11-18T00:18:03;9.80;;;8.37;;
1136;SDS011;557;48.466;7.950;2023-11-18T00:20:30;13.20;;;8.87;;
1136;SDS011;557;48.466;7.950;2023-11-18T00:22:56;10.80;;;8.30;;
1136;SDS011;557;48.466;7.950;2023-11-18T00:25:23;11.00;;;8.47;;
1136;SDS011;557;48.466;7.950;2023-11-18T00:27:50;14.30;;;9.50;;
1136;SDS011;557;48.466;7.950;2023-11-18T00:30:18;11.53;;;9.27;;
1136;SDS011;557;48.466;7.950;2023-11-18T00:32:45;9.97;;;8.60;;
1136;SDS011;557;48.466;7.950;2023-11-18T00:35:13;12.47;;;9.67;;
1136;SDS011;557;48.466;7.950;2023-11-18T00:37:40;11.63;;;10.30;;
1136;SDS011;557;48.466;7.950;2023-11-18T00:40:07;13.20;;;10.30;;
1136;SDS011;557;48.466;7.950;2023-11-18T00:42:34;12.80;;;9.90;;
1136;SDS011;557;48.466;7.950;2023-11-18T00:45:01;14.80;;;10.37;;
1136;SDS011;557;48.466;7.950;2023-11-18T00:47:30;13.20;;;10.43;;
1136;SDS011;557;48.466;7.950;2023-11-18T00:49:57;15.37;;;11.20;;
1136;SDS011;557;48.466;7.950;2023-11-18T00:52:28;15.80;;;11.80;;
1136;SDS011;557;48.466;7.950;2023-11-18T00:54:54;15.47;;;11.27;;
1136;SDS011;557;48.466;7.950;2023-11-18T00:57:21;15.90;;;11.53;;
1136;SDS011;557;48.466;7.950;2023-11-18T00:59:48;18.63;;;12.27;;
1136;SDS011;557;48.466;7.950;2023-11-18T01:02:15;15.87;;;11.23;;
1136;SDS011;557;48.466;7.950;2023-11-18T01:04:44;16.13;;;11.80;;
1136;SDS011;557;48.466;7.950;2023-11-18T01:07:11;17.93;;;13.47;;
1136;SDS011;557;48.466;7.950;2023-11-18T01:09:38;18.20;;;12.83;;
1136;SDS011;557;48.466;7.950;2023-11-18T01:12:05;19.80;;;13.00;;
1136;SDS011;557;48.466;7.950;2023-11-18T01:14:35;16.13;;;11.80;;
1136;SDS011;557;48.466;7.950;2023-11-18T01:17:03;16.77;;;12.30;;
1136;SDS011;557;48.466;7.950;2023-11-18T01:19:30;19.33;;;12.70;;
1136;SDS011;557;48.466;7.950;2023-11-18T01:21:58;18.17;;;12.37;;
1136;SDS011;557;48.466;7.950;2023-11-18T01:24:25;14.07;;;11.70;;
1136;SDS011;557;48.466;7.950;2023-11-18T01:26:53;19.90;;;12.70;;
1136;SDS011;557;48.466;7.950;2023-11-18T01:29:20;15.50;;;12.13;;
1136;SDS011;557;48.466;7.950;2023-11-18T01:31:47;15.73;;;11.90;;
1136;SDS011;557;48.466;7.950;2023-11-18T01:34:14;20.93;;;12.80;;
1136;SDS011;557;48.466;7.950;2023-11-18T01:36:42;16.73;;;11.33;;
1136;SDS011;557;48.466;7.950;2023-11-18T01:39:10;17.67;;;12.50;;
1136;SDS011;557;48.466;7.950;2023-11-18T01:41:38;18.47;;;12.97;;
1136;SDS011;557;48.466;7.950;2023-11-18T01:44:05;15.77;;;11.63;;
1136;SDS011;557;48.466;7.950;2023-11-18T01:46:33;16.60;;;12.37;;
1136;SDS011;557;48.466;7.950;2023-11-18T01:49:01;16.13;;;11.63;;
1136;SDS011;557;48.466;7.950;2023-11-18T01:51:29;19.27;;;11.87;;
1136;SDS011;557;48.466;7.950;2023-11-18T01:53:56;15.60;;;11.47;;
1136;SDS011;557;48.466;7.950;2023-11-18T01:56:27;13.30;;;10.47;;
1136;SDS011;557;48.466;7.950;2023-11-18T01:58:54;13.97;;;10.63;;
1136;SDS011;557;48.466;7.950;2023-11-18T02:01:24;17.07;;;10.03;;
1136;SDS011;557;48.466;7.950;2023-11-18T02:03:52;15.47;;;11.23;;
1136;SDS011;557;48.466;7.950;2023-11-18T02:06:19;17.90;;;12.50;;
1136;SDS011;557;48.466;7.950;2023-11-18T02:08:47;19.60;;;13.70;;
1136;SDS011;557;48.466;7.950;2023-11-18T02:11:15;17.57;;;12.50;;
1136;SDS011;557;48.466;7.950;2023-11-18T02:13:51;17.30;;;11.40;;
1136;SDS011;557;48.466;7.950;2023-11-18T02:16:21;16.23;;;11.60;;
1136;SDS011;557;48.466;7.950;2023-11-18T02:18:50;17.33;;;11.87;;
1136;SDS011;557;48.466;7.950;2023-11-18T02:21:18;16.40;;;11.43;;
1136;SDS011;557;48.466;7.950;2023-11-18T02:23:47;15.83;;;10.73;;
1136;SDS011;557;48.466;7.950;2023-11-18T02:26:21;15.90;;;11.00;;
1136;SDS011;557;48.466;7.950;2023-11-18T02:28:48;16.20;;;11.23;;
1136;SDS011;557;48.466;7.950;2023-11-18T02:31:16;13.37;;;10.10;;
1136;SDS011;557;48.466;7.950;2023-11-18T02:33:53;15.43;;;10.63;;
1136;SDS011;557;48.466;7.950;2023-11-18T02:36:30;13.60;;;10.07;;
1136;SDS011;557;48.466;7.950;2023-11-18T02:39:01;11.80;;;8.83;;
1136;SDS011;557;48.466;7.950;2023-11-18T02:41:35;13.30;;;9.07;;
1136;SDS011;557;48.466;7.950;2023-11-18T02:44:04;13.57;;;9.03;;
1136;SDS011;557;48.466;7.950;2023-11-18T02:46:35;10.67;;;7.03;;
1136;SDS011;557;48.466;7.950;2023-11-18T02:49:03;13.17;;;7.90;;
1136;SDS011;557;48.466;7.950;2023-11-18T02:51:30;11.43;;;7.90;;
1136;SDS011;557;48.466;7.950;2023-11-18T02:53:58;13.70;;;10.30;;
1136;SDS011;557;48.466;7.950;2023-11-18T02:56:25;15.10;;;10.00;;
1136;SDS011;557;48.466;7.950;2023-11-18T02:58:53;17.33;;;11.33;;
1136;SDS011;557;48.466;7.950;2023-11-18T03:01:20;21.23;;;13.90;;
1136;SDS011;557;48.466;7.950;2023-11-18T03:03:49;19.10;;;13.40;;
1136;SDS011;557;48.466;7.950;2023-11-18T03:06:16;21.27;;;14.23;;
1136;SDS011;557;48.466;7.950;2023-11-18T03:08:43;25.83;;;14.53;;
1136;SDS011;557;48.466;7.950;2023-11-18T03:11:09;25.10;;;15.30;;
1136;SDS011;557;48.466;7.950;2023-11-18T03:13:37;21.17;;;14.40;;
1136;SDS011;557;48.466;7.950;2023-11-18T03:16:07;21.13;;;15.13;;
1136;SDS011;557;48.466;7.950;2023-11-18T03:18:36;24.60;;;15.40;;
1136;SDS011;557;48.466;7.950;2023-11-18T03:21:06;21.50;;;14.43;;
1136;SDS011;557;48.466;7.950;2023-11-18T03:23:37;23.27;;;14.10;;
1136;SDS011;557;48.466;7.950;2023-11-18T03:26:04;23.63;;;14.90;;
1136;SDS011;557;48.466;7.950;2023-11-18T03:28:31;25.17;;;15.03;;
1136;SDS011;557;48.466;7.950;2023-11-18T03:30:58;28.20;;;18.20;;
1136;SDS011;557;48.466;7.950;2023-11-18T03:33:27;29.57;;;16.20;;
1136;SDS011;557;48.466;7.950;2023-11-18T03:35:54;31.50;;;15.83;;
1136;SDS011;557;48.466;7.950;2023-11-18T03:38:21;29.40;;;16.00;;
1136;SDS011;557;48.466;7.950;2023-11-18T03:40:48;25.20;;;15.43;;
1136;SDS011;557;48.466;7.950;2023-11-18T03:43:17;24.77;;;16.20;;
1136;SDS011;557;48.466;7.950;2023-11-18T03:45:45;32.87;;;17.57;;
1136;SDS011;557;48.466;7.950;2023-11-18T03:48:11;31.30;;;17.97;;
1136;SDS011;557;48.466;7.950;2023-11-18T03:50:40;26.83;;;15.07;;
1136;SDS011;557;48.466;7.950;2023-11-18T03:53:10;24.17;;;14.37;;
1136;SDS011;557;48.466;7.950;2023-11-18T03:55:37;30.73;;;17.10;;
1136;SDS011;557;48.466;7.950;2023-11-18T03:58:04;27.67;;;14.90;;
1136;SDS011;557;48.466;7.950;2023-11-18T04:00:31;20.10;;;13.20;;
1136;SDS011;557;48.466;7.950;2023-11-18T04:02:58;24.07;;;14.40;;
1136;SDS011;557;48.466;7.950;2023-11-18T04:05:25;22.80;;;14.03;;
1136;SDS011;557;48.466;7.950;2023-11-18T04:07:53;27.97;;;15.90;;
1136;SDS011;557;48.466;7.950;2023-11-18T04:10:20;24.30;;;15.17;;
1136;SDS011;557;48.466;7.950;2023-11-18T04:12:47;28.40;;;15.70;;
1136;SDS011;557;48.466;7.950;2023-11-18T04:15:14;29.27;;;16.40;;
1136;SDS011;557;48.466;7.950;2023-11-18T04:17:41;29.00;;;16.07;;
1136;SDS011;557;48.466;7.950;2023-11-18T04:20:09;32.60;;;17.00;;
1136;SDS011;557;48.466;7.950;2023-11-18T04:22:37;31.20;;;15.87;;
1136;SDS011;557;48.466;7.950;2023-11-18T04:25:07;33.03;;;16.77;;
1136;SDS011;557;48.466;7.950;2023-11-18T04:27:35;28.83;;;15.37;;
1136;SDS011;557;48.466;7.950;2023-11-18T04:30:02;27.80;;;17.00;;
1136;SDS011;557;48.466;7.950;2023-11-18T04:32:30;31.03;;;15.23;;
1136;SDS011;557;48.466;7.950;2023-11-18T04:34:58;24.87;;;14.90;;
1136;SDS011;557;48.466;7.950;2023-11-18T04:37:25;29.43;;;15.43;;
1136;SDS011;557;48.466;7.950;2023-11-18T04:39:52;28.03;;;15.60;;
1136;SDS011;557;48.466;7.950;2023-11-18T04:42:21;29.93;;;16.63;;
1136;SDS011;557;48.466;7.950;2023-11-18T04:44:48;34.37;;;18.00;;
1136;SDS011;557;48.466;7.950;2023-11-18T04:47:15;32.23;;;18.03;;
1136;SDS011;557;48.466;7.950;2023-11-18T04:49:43;31.60;;;17.43;;
1136;SDS011;557;48.466;7.950;2023-11-18T04:52:10;32.27;;;17.63;;
1136;SDS011;557;48.466;7.950;2023-11-18T04:54:37;31.67;;;16.97;;
1136;SDS011;557;48.466;7.950;2023-11-18T04:57:04;33.17;;;17.53;;
1136;SDS011;557;48.466;7.950;2023-11-18T04:59:35;30.27;;;16.43;;
1136;SDS011;557;48.466;7.950;2023-11-18T05:02:02;31.00;;;17.00;;
1136;SDS011;557;48.466;7.950;2023-11-18T05:04:29;33.57;;;18.37;;
1136;SDS011;557;48.466;7.950;2023-11-18T05:06:56;32.37;;;17.00;;
1136;SDS011;557;48.466;7.950;2023-11-18T05:09:23;37.07;;;19.13;;
1136;SDS011;557;48.466;7.950;2023-11-18T05:11:50;33.23;;;17.00;;
1136;SDS011;557;48.466;7.950;2023-11-18T05:14:17;37.07;;;18.63;;
1136;SDS011;557;48.466;7.950;2023-11-18T05:16:46;39.63;;;19.30;;
1136;SDS011;557;48.466;7.950;2023-11-18T05:19:13;34.20;;;17.17;;
1136;SDS011;557;48.466;7.950;2023-11-18T05:21:41;34.90;;;18.90;;
1136;SDS011;557;48.466;7.950;2023-11-18T05:24:09;37.30;;;19.30;;
1136;SDS011;557;48.466;7.950;2023-11-18T05:26:36;34.43;;;18.00;;
1136;SDS011;557;48.466;7.950;2023-11-18T05:29:02;31.53;;;18.50;;
1136;SDS011;557;48.466;7.950;2023-11-18T05:31:31;30.50;;;18.67;;
1136;SDS011;557;48.466;7.950;2023-11-18T05:34:00;27.33;;;15.13;;
1136;SDS011;557;48.466;7.950;2023-11-18T05:36:27;30.43;;;17.60;;
1136;SDS011;557;48.466;7.950;2023-11-18T05:39:02;34.50;;;15.97;;
1136;SDS011;557;48.466;7.950;2023-11-18T05:41:30;28.07;;;15.77;;
1136;SDS011;557;48.466;7.950;2023-11-18T05:43:58;30.40;;;16.50;;
1136;SDS011;557;48.466;7.950;2023-11-18T05:46:25;31.83;;;16.80;;
1136;SDS011;557;48.466;7.950;2023-11-18T05:48:54;30.97;;;16.40;;
1136;SDS011;557;48.466;7.950;2023-11-18T05:51:24;27.13;;;15.67;;
1136;SDS011;557;48.466;7.950;2023-11-18T05:53:54;27.80;;;15.53;;
1136;SDS011;557;48.466;7.950;2023-11-18T05:56:21;25.27;;;15.13;;
1136;SDS011;557;48.466;7.950;2023-11-18T05:58:48;30.27;;;15.43;;
1136;SDS011;557;48.466;7.950;2023-11-18T06:01:15;25.20;;;15.53;;
1136;SDS011;557;48.466;7.950;2023-11-18T06:03:46;26.90;;;15.40;;
1136;SDS011;557;48.466;7.950;2023-11-18T06:06:13;24.93;;;15.30;;
1136;SDS011;557;48.466;7.950;2023-11-18T06:08:43;28.87;;;16.20;;
1136;SDS011;557;48.466;7.950;2023-11-18T06:11:10;31.80;;;15.67;;
1136;SDS011;557;48.466;7.950;2023-11-18T06:13:41;23.90;;;13.70;;
1136;SDS011;557;48.466;7.950;2023-11-18T06:16:09;26.10;;;14.67;;
1136;SDS011;557;48.466;7.950;2023-11-18T06:18:40;25.77;;;14.50;;
1136;SDS011;557;48.466;7.950;2023-11-18T06:21:11;26.40;;;14.73;;
1136;SDS011;557;48.466;7.950;2023-11-18T06:23:39;25.00;;;14.00;;
1136;SDS011;557;48.466;7.950;2023-11-18T06:26:08;23.70;;;13.97;;
1136;SDS011;557;48.466;7.950;2023-11-18T06:28:36;26.60;;;13.40;;
1136;SDS011;557;48.466;7.950;2023-11-18T06:31:04;22.27;;;13.37;;
1136;SDS011;557;48.466;7.950;2023-11-18T06:33:37;18.93;;;12.37;;
1136;SDS011;557;48.466;7.950;2023-11-18T06:36:08;17.50;;;11.47;;
1136;SDS011;557;48.466;7.950;2023-11-18T06:38:36;19.23;;;12.70;;
1136;SDS011;557;48.466;7.950;2023-11-18T06:41:04;16.97;;;11.40;;
1136;SDS011;557;48.466;7.950;2023-11-18T06:43:36;16.83;;;11.37;;
1136;SDS011;557;48.466;7.950;2023-11-18T06:46:16;14.77;;;10.00;;
1136;SDS011;557;48.466;7.950;2023-11-18T06:48:45;14.90;;;9.80;;
1136;SDS011;557;48.466;7.950;2023-11-18T06:51:15;13.40;;;9.60;;
1136;SDS011;557;48.466;7.950;2023-11-18T06:53:42;12.93;;;9.07;;
1136;SDS011;557;48.466;7.950;2023-11-18T06:56:09;13.50;;;8.60;;
1136;SDS011;557;48.466;7.950;2023-11-18T06:58:38;9.83;;;7.33;;
1136;SDS011;557;48.466;7.950;2023-11-18T07:01:05;10.43;;;6.40;;
1136;SDS011;557;48.466;7.950;2023-11-18T07:03:33;8.43;;;6.80;;
1136;SDS011;557;48.466;7.950;2023-11-18T07:06:01;9.13;;;7.07;;
1136;SDS011;557;48.466;7.950;2023-11-18T07:08:30;8.53;;;5.67;;
1136;SDS011;557;48.466;7.950;2023-11-18T07:10:57;7.70;;;5.87;;
1136;SDS011;557;48.466;7.950;2023-11-18T07:13:24;6.63;;;5.40;;
1136;SDS011;557;48.466;7.950;2023-11-18T07:15:52;7.40;;;5.73;;
1136;SDS011;557;48.466;7.950;2023-11-18T07:18:21;10.10;;;6.30;;
1136;SDS011;557;48.466;7.950;2023-11-18T07:20:48;8.13;;;6.33;;
1136;SDS011;557;48.466;7.950;2023-11-18T07:23:16;6.33;;;5.37;;
1136;SDS011;557;48.466;7.950;2023-11-18T07:25:43;7.13;;;5.80;;
1136;SDS011;557;48.466;7.950;2023-11-18T07:28:10;6.17;;;5.27;;
1136;SDS011;557;48.466;7.950;2023-11-18T07:30:40;7.13;;;5.50;;
1136;SDS011;557;48.466;7.950;2023-11-18T07:33:09;7.03;;;4.77;;
1136;SDS011;557;48.466;7.950;2023-11-18T07:35:36;6.50;;;4.80;;
1136;SDS011;557;48.466;7.950;2023-11-18T07:38:03;5.27;;;3.90;;
1136;SDS011;557;48.466;7.950;2023-11-18T07:40:33;8.83;;;4.60;;
1136;SDS011;557;48.466;7.950;2023-11-18T07:43:00;8.73;;;4.10;;
1136;SDS011;557;48.466;7.950;2023-11-18T07:45:27;6.07;;;4.27;;
1136;SDS011;557;48.466;7.950;2023-11-18T07:48:02;6.00;;;3.80;;
1136;SDS011;557;48.466;7.950;2023-11-18T07:50:32;7.50;;;4.17;;
1136;SDS011;557;48.466;7.950;2023-11-18T07:53:00;9.77;;;5.27;;
1136;SDS011;557;48.466;7.950;2023-11-18T07:55:27;8.27;;;4.87;;
1136;SDS011;557;48.466;7.950;2023-11-18T07:57:54;7.30;;;5.03;;
1136;SDS011;557;48.466;7.950;2023-11-18T08:00:21;6.50;;;4.90;;
1136;SDS011;557;48.466;7.950;2023-11-18T08:02:49;8.70;;;5.73;;
1136;SDS011;557;48.466;7.950;2023-11-18T08:05:16;6.03;;;5.20;;
1136;SDS011;557;48.466;7.950;2023-11-18T08:07:45;5.80;;;4.87;;
1136;SDS011;557;48.466;7.950;2023-11-18T08:10:12;6.40;;;5.80;;
1136;SDS011;557;48.466;7.950;2023-11-18T08:12:43;7.00;;;5.03;;
1136;SDS011;557;48.466;7.950;2023-11-18T08:15:11;7.23;;;5.13;;
1136;SDS011;557;48.466;7.950;2023-11-18T08:17:39;7.87;;;5.70;;
1136;SDS011;557;48.466;7.950;2023-11-18T08:20:06;8.93;;;4.40;;
1136;SDS011;557;48.466;7.950;2023-11-18T08:22:39;7.53;;;4.40;;
1136;SDS011;557;48.466;7.950;2023-11-18T08:25:09;7.77;;;4.83;;
1136;SDS011;557;48.466;7.950;2023-11-18T08:27:38;6.30;;;5.00;;
1136;SDS011;557;48.466;7.950;2023-11-18T08:30:05;7.77;;;5.13;;
1136;SDS011;557;48.466;7.950;2023-11-18T08:32:36;5.40;;;4.50;;
1136;SDS011;557;48.466;7.950;2023-11-18T08:35:04;5.47;;;4.57;;
1136;SDS011;557;48.466;7.950;2023-11-18T08:37:32;6.07;;;4.37;;
1136;SDS011;557;48.466;7.950;2023-11-18T08:40:00;6.60;;;4.67;;
1136;SDS011;557;48.466;7.950;2023-11-18T08:42:38;6.20;;;4.87;;
1136;SDS011;557;48.466;7.950;2023-11-18T08:45:05;6.60;;;5.00;;
1136;SDS011;557;48.466;7.950;2023-11-18T08:47:33;7.07;;;5.20;;
1136;SDS011;557;48.466;7.950;2023-11-18T08:49:59;6.17;;;5.27;;
1136;SDS011;557;48.466;7.950;2023-11-18T08:52:36;5.50;;;4.50;;
1136;SDS011;557;48.466;7.950;2023-11-18T08:55:08;6.50;;;4.90;;
1136;SDS011;557;48.466;7.950;2023-11-18T08:57:45;4.30;;;3.27;;
1136;SDS011;557;48.466;7.950;2023-11-18T09:00:23;5.37;;;3.73;;
1136;SDS011;557;48.466;7.950;2023-11-18T09:03:11;4.17;;;3.40;;
1136;SDS011;557;48.466;7.950;2023-11-18T09:05:43;3.63;;;3.20;;
1136;SDS011;557;48.466;7.950;2023-11-18T09:08:22;5.30;;;3.23;;
1136;SDS011;557;48.466;7.950;2023-11-18T09:10:52;4.20;;;3.30;;
1136;SDS011;557;48.466;7.950;2023-11-18T09:13:22;4.40;;;2.70;;
1136;SDS011;557;48.466;7.950;2023-11-18T09:15:54;3.97;;;2.90;;
1136;SDS011;557;48.466;7.950;2023-11-18T09:18:22;4.60;;;3.40;;
1136;SDS011;557;48.466;7.950;2023-11-18T09:20:50;4.20;;;3.43;;
1136;SDS011;557;48.466;7.950;2023-11-18T09:23:17;4.90;;;2.23;;
1136;SDS011;557;48.466;7.950;2023-11-18T09:25:45;3.90;;;2.50;;
1136;SDS011;557;48.466;7.950;2023-11-18T09:28:13;4.50;;;2.40;;
1136;SDS011;557;48.466;7.950;2023-11-18T09:30:43;4.23;;;2.63;;
1136;SDS011;557;48.466;7.950;2023-11-18T09:33:18;4.03;;;2.33;;
1136;SDS011;557;48.466;7.950;2023-11-18T09:35:54;3.17;;;2.30;;
1136;SDS011;557;48.466;7.950;2023-11-18T09:38:25;3.70;;;2.70;;
1136;SDS011;557;48.466;7.950;2023-11-18T09:40:54;4.17;;;2.67;;
1136;SDS011;557;48.466;7.950;2023-11-18T09:43:21;4.57;;;2.20;;
1136;SDS011;557;48.466;7.950;2023-11-18T09:45:52;7.43;;;2.63;;
1136;SDS011;557;48.466;7.950;2023-11-18T09:48:21;3.83;;;2.50;;
1136;SDS011;557;48.466;7.950;2023-11-18T09:50:51;3.20;;;2.10;;
1136;SDS011;557;48.466;7.950;2023-11-18T09:53:19;2.83;;;1.90;;
1136;SDS011;557;48.466;7.950;2023-11-18T09:55:52;4.27;;;2.57;;
1136;SDS011;557;48.466;7.950;2023-11-18T09:58:29;4.20;;;3.00;;
1136;SDS011;557;48.466;7.950;2023-11-18T10:01:08;3.63;;;2.73;;
1136;SDS011;557;48.466;7.950;2023-11-18T10:03:40;2.37;;;1.60;;
1136;SDS011;557;48.466;7.950;2023-11-18T10:06:11;3.70;;;1.87;;
1136;SDS011;557;48.466;7.950;2023-11-18T10:08:40;3.77;;;2.47;;
1136;SDS011;557;48.466;7.950;2023-11-18T10:11:11;3.50;;;2.60;;
1136;SDS011;557;48.466;7.950;2023-11-18T10:13:39;4.10;;;2.80;;
1136;SDS011;557;48.466;7.950;2023-11-18T10:16:10;8.00;;;2.93;;
1136;SDS011;557;48.466;7.950;2023-11-18T10:18:38;3.27;;;2.27;;
1136;SDS011;557;48.466;7.950;2023-11-18T10:21:14;3.07;;;2.30;;
1136;SDS011;557;48.466;7.950;2023-11-18T10:23:47;2.47;;;2.00;;
1136;SDS011;557;48.466;7.950;2023-11-18T10:26:25;4.50;;;2.10;;
1136;SDS011;557;48.466;7.950;2023-11-18T10:28:51;3.57;;;2.20;;
1136;SDS011;557;48.466;7.950;2023-11-18T10:31:20;4.60;;;2.40;;
1136;SDS011;557;48.466;7.950;2023-11-18T10:33:49;2.97;;;2.50;;
1136;SDS011;557;48.466;7.950;2023-11-18T10:36:17;5.20;;;2.07;;
1136;SDS011;557;48.466;7.950;2023-11-18T10:38:48;3.30;;;2.00;;
1136;SDS011;557;48.466;7.950;2023-11-18T10:41:17;2.70;;;2.03;;
1136;SDS011;557;48.466;7.950;2023-11-18T10:43:44;4.17;;;2.20;;
1136;SDS011;557;48.466;7.950;2023-11-18T10:46:13;3.23;;;2.03;;
1136;SDS011;557;48.466;7.950;2023-11-18T10:48:43;4.33;;;2.73;;
1136;SDS011;557;48.466;7.950;2023-11-18T10:51:13;6.03;;;3.80;;
1136;SDS011;557;48.466;7.950;2023-11-18T10:53:41;5.63;;;3.83;;
1136;SDS011;557;48.466;7.950;2023-11-18T10:56:19;7.80;;;4.77;;
1136;SDS011;557;48.466;7.950;2023-11-18T10:58:51;10.37;;;5.60;;
1136;SDS011;557;48.466;7.950;2023-11-18T11:01:26;4.83;;;2.93;;
1136;SDS011;557;48.466;7.950;2023-11-18T11:03:55;3.30;;;2.53;;
1136;SDS011;557;48.466;7.950;2023-11-18T11:06:23;3.30;;;2.40;;
1136;SDS011;557;48.466;7.950;2023-11-18T11:08:50;2.80;;;2.43;;
1136;SDS011;557;48.466;7.950;2023-11-18T11:11:18;2.47;;;2.13;;
1136;SDS011;557;48.466;7.950;2023-11-18T11:13:49;4.70;;;2.20;;
1136;SDS011;557;48.466;7.950;2023-11-18T11:16:18;6.60;;;2.70;;
1136;SDS011;557;48.466;7.950;2023-11-18T11:18:48;3.23;;;2.33;;
1136;SDS011;557;48.466;7.950;2023-11-18T11:21:24;3.00;;;2.23;;
1136;SDS011;557;48.466;7.950;2023-11-18T11:23:55;4.23;;;1.90;;
1136;SDS011;557;48.466;7.950;2023-11-18T11:26:34;2.60;;;2.40;;
1136;SDS011;557;48.466;7.950;2023-11-18T11:29:11;3.07;;;2.70;;
1136;SDS011;557;48.466;7.950;2023-11-18T11:31:55;6.40;;;2.07;;
1136;SDS011;557;48.466;7.950;2023-11-18T11:34:37;2.53;;;2.30;;
1136;SDS011;557;48.466;7.950;2023-11-18T11:37:13;4.67;;;2.20;;
1136;SDS011;557;48.466;7.950;2023-11-18T11:39:42;4.77;;;3.30;;
1136;SDS011;557;48.466;7.950;2023-11-18T11:42:12;3.40;;;2.40;;
1136;SDS011;557;48.466;7.950;2023-11-18T11:44:43;4.53;;;2.63;;
1136;SDS011;557;48.466;7.950;2023-11-18T11:47:10;3.00;;;2.33;;
1136;SDS011;557;48.466;7.950;2023-11-18T11:49:41;3.80;;;2.43;;
1136;SDS011;557;48.466;7.950;2023-11-18T11:52:19;4.20;;;2.30;;
1136;SDS011;557;48.466;7.950;2023-11-18T11:54:55;4.87;;;3.07;;
1136;SDS011;557;48.466;7.950;2023-11-18T11:57:29;4.50;;;2.30;;
1136;SDS011;557;48.466;7.950;2023-11-18T12:00:00;3.87;;;2.43;;
1136;SDS011;557;48.466;7.950;2023-11-18T12:02:40;3.20;;;2.47;;
1136;SDS011;557;48.466;7.950;2023-11-18T12:05:15;3.70;;;2.57;;
1136;SDS011;557;48.466;7.950;2023-11-18T12:07:46;5.10;;;2.70;;
1136;SDS011;557;48.466;7.950;2023-11-18T12:10:13;6.90;;;3.13;;
1136;SDS011;557;48.466;7.950;2023-11-18T12:12:47;7.67;;;3.23;;
1136;SDS011;557;48.466;7.950;2023-11-18T12:15:15;3.90;;;2.40;;
1136;SDS011;557;48.466;7.950;2023-11-18T12:18:19;5.60;;;3.77;;
1136;SDS011;557;48.466;7.950;2023-11-18T12:20:58;3.90;;;3.10;;
1136;SDS011;557;48.466;7.950;2023-11-18T12:23:27;4.77;;;3.70;;
1136;SDS011;557;48.466;7.950;2023-11-18T12:25:55;6.13;;;3.57;;
1136;SDS011;557;48.466;7.950;2023-11-18T12:28:26;3.40;;;2.63;;
1136;SDS011;557;48.466;7.950;2023-11-18T12:30:56;3.67;;;2.57;;
1136;SDS011;557;48.466;7.950;2023-11-18T12:36:43;9.40;;;4.73;;
1136;SDS011;557;48.466;7.950;2023-11-18T12:42:49;11.40;;;4.87;;
1136;SDS011;557;48.466;7.950;2023-11-18T12:48:49;5.30;;;3.23;;
1136;SDS011;557;48.466;7.950;2023-11-18T12:51:20;4.20;;;3.60;;
1136;SDS011;557;48.466;7.950;2023-11-18T12:53:49;6.17;;;3.53;;
1136;SDS011;557;48.466;7.950;2023-11-18T12:56:18;3.80;;;3.03;;
1136;SDS011;557;48.466;7.950;2023-11-18T12:58:48;3.93;;;3.20;;
1136;SDS011;557;48.466;7.950;2023-11-18T13:01:16;4.37;;;3.07;;
1136;SDS011;557;48.466;7.950;2023-11-18T13:03:44;6.57;;;3.30;;
1136;SDS011;557;48.466;7.950;2023-11-18T13:06:12;3.37;;;2.50;;
1136;SDS011;557;48.466;7.950;2023-11-18T13:08:39;3.80;;;2.67;;
1136;SDS011;557;48.466;7.950;2023-11-18T13:11:08;6.07;;;3.13;;
1136;SDS011;557;48.466;7.950;2023-11-18T13:13:41;4.60;;;3.17;;
1136;SDS011;557;48.466;7.950;2023-11-18T13:16:08;5.27;;;3.27;;
1136;SDS011;557;48.466;7.950;2023-11-18T13:18:41;3.80;;;3.07;;
1136;SDS011;557;48.466;7.950;2023-11-18T13:21:13;4.70;;;3.00;;
1136;SDS011;557;48.466;7.950;2023-11-18T13:23:41;6.70;;;3.17;;
1136;SDS011;557;48.466;7.950;2023-11-18T13:26:14;6.20;;;3.33;;
1136;SDS011;557;48.466;7.950;2023-11-18T13:28:45;6.53;;;4.07;;
1136;SDS011;557;48.466;7.950;2023-11-18T13:31:13;4.60;;;3.80;;
1136;SDS011;557;48.466;7.950;2023-11-18T13:33:41;6.00;;;4.07;;
1136;SDS011;557;48.466;7.950;2023-11-18T13:36:11;7.77;;;4.50;;
1136;SDS011;557;48.466;7.950;2023-11-18T13:38:38;8.20;;;3.47;;
1136;SDS011;557;48.466;7.950;2023-11-18T13:41:07;5.57;;;3.70;;
1136;SDS011;557;48.466;7.950;2023-11-18T13:43:45;7.20;;;4.37;;
1136;SDS011;557;48.466;7.950;2023-11-18T13:46:13;7.20;;;4.47;;
1136;SDS011;557;48.466;7.950;2023-11-18T13:48:40;6.47;;;3.53;;
1136;SDS011;557;48.466;7.950;2023-11-18T13:51:08;6.70;;;5.03;;
1136;SDS011;557;48.466;7.950;2023-11-18T13:53:45;5.47;;;4.27;;
1136;SDS011;557;48.466;7.950;2023-11-18T13:56:13;6.43;;;4.60;;
1136;SDS011;557;48.466;7.950;2023-11-18T13:58:42;8.57;;;4.70;;
1136;SDS011;557;48.466;7.950;2023-11-18T14:01:11;5.93;;;3.53;;
1136;SDS011;557;48.466;7.950;2023-11-18T14:03:39;4.17;;;3.10;;
1136;SDS011;557;48.466;7.950;2023-11-18T14:06:09;4.50;;;3.10;;
1136;SDS011;557;48.466;7.950;2023-11-18T14:08:37;4.00;;;3.23;;
1136;SDS011;557;48.466;7.950;2023-11-18T14:11:05;6.70;;;3.10;;
1136;SDS011;557;48.466;7.950;2023-11-18T14:13:34;6.20;;;3.37;;
1136;SDS011;557;48.466;7.950;2023-11-18T14:16:04;6.53;;;4.00;;
1136;SDS011;557;48.466;7.950;2023-11-18T14:18:34;6.07;;;4.10;;
1136;SDS011;557;48.466;7.950;2023-11-18T14:21:02;12.13;;;6.27;;
1136;SDS011;557;48.466;7.950;2023-11-18T14:23:30;7.90;;;5.10;;
1136;SDS011;557;48.466;7.950;2023-11-18T14:25:57;6.93;;;4.10;;
1136;SDS011;557;48.466;7.950;2023-11-18T14:28:24;6.63;;;4.80;;
1136;SDS011;557;48.466;7.950;2023-11-18T14:30:51;9.30;;;5.23;;
1136;SDS011;557;48.466;7.950;2023-11-18T14:33:19;9.77;;;5.67;;
1136;SDS011;557;48.466;7.950;2023-11-18T14:35:46;8.97;;;5.80;;
1136;SDS011;557;48.466;7.950;2023-11-18T14:38:13;6.70;;;3.93;;
1136;SDS011;557;48.466;7.950;2023-11-18T14:41:05;5.40;;;3.37;;
1136;SDS011;557;48.466;7.950;2023-11-18T14:43:44;6.17;;;4.37;;
1136;SDS011;557;48.466;7.950;2023-11-18T14:46:14;6.47;;;3.50;;
1136;SDS011;557;48.466;7.950;2023-11-18T14:48:46;5.23;;;3.93;;
1136;SDS011;557;48.466;7.950;2023-11-18T14:51:15;5.23;;;3.93;;
1136;SDS011;557;48.466;7.950;2023-11-18T14:53:42;7.60;;;5.80;;
1136;SDS011;557;48.466;7.950;2023-11-18T14:56:09;6.30;;;4.67;;
1136;SDS011;557;48.466;7.950;2023-11-18T14:58:36;6.23;;;4.60;;
1136;SDS011;557;48.466;7.950;2023-11-18T15:01:04;5.20;;;4.03;;
1136;SDS011;557;48.466;7.950;2023-11-18T15:03:35;5.27;;;4.70;;
1136;SDS011;557;48.466;7.950;2023-11-18T15:06:04;5.43;;;4.30;;
1136;SDS011;557;48.466;7.950;2023-11-18T15:08:32;4.37;;;3.80;;
1136;SDS011;557;48.466;7.950;2023-11-18T15:10:59;5.90;;;3.83;;
1136;SDS011;557;48.466;7.950;2023-11-18T15:13:26;8.97;;;4.30;;
1136;SDS011;557;48.466;7.950;2023-11-18T15:15:52;5.30;;;3.70;;
1136;SDS011;557;48.466;7.950;2023-11-18T15:18:20;7.00;;;3.87;;
1136;SDS011;557;48.466;7.950;2023-11-18T15:20:51;5.70;;;4.20;;
1136;SDS011;557;48.466;7.950;2023-11-18T15:23:22;7.20;;;4.00;;
1136;SDS011;557;48.466;7.950;2023-11-18T15:25:49;7.00;;;5.07;;
1136;SDS011;557;48.466;7.950;2023-11-18T15:28:16;5.93;;;4.53;;
1136;SDS011;557;48.466;7.950;2023-11-18T15:30:45;4.80;;;4.13;;
1136;SDS011;557;48.466;7.950;2023-11-18T15:33:11;5.03;;;4.20;;
1136;SDS011;557;48.466;7.950;2023-11-18T15:35:40;6.37;;;4.63;;
1136;SDS011;557;48.466;7.950;2023-11-18T15:38:07;4.20;;;3.80;;
1136;SDS011;557;48.466;7.950;2023-11-18T15:40:36;4.10;;;3.27;;